sensor_id;sensor_type;location;lat;lon;timestamp;temperature;humidity
56322;DHT22;42227;6.376;-10.782;2022-09-09T00:04:34;26.20;99.90
56322;DHT22;42227;6.376;-10.782;2022-09-09T00:07:26;26.40;99.90
56322;DHT22;42227;6.376;-10.782;2022-09-09T00:18:11;26.10;99.90
56322;DHT22;42227;6.376;-10.782;2022-09-09T00:20:58;26.00;99.90
56322;DHT22;42227;6.376;-10.782;2022-09-09T00:23:32;26.00;99.90
56322;DHT22;42227;6.376;-10.782;2022-09-09T00:31:35;26.60;99.90
56322;DHT22;42227;6.376;-10.782;2022-09-09T00:36:43;26.50;99.90
56322;DHT22;42227;6.376;-10.782;2022-09-09T00:39:36;26.50;99.90
56322;DHT22;42227;6.376;-10.782;2022-09-09T00:44:52;26.20;99.90
56322;DHT22;42227;6.376;-10.782;2022-09-09T00:47:51;26.10;99.90
56322;DHT22;42227;6.376;-10.782;2022-09-09T00:53:30;25.90;99.90
56322;DHT22;42227;6.376;-10.782;2022-09-09T00:56:14;25.90;99.90
56322;DHT22;42227;6.376;-10.782;2022-09-09T00:59:28;25.90;99.90
56322;DHT22;42227;6.376;-10.782;2022-09-09T01:01:47;26.20;99.90
56322;DHT22;42227;6.376;-10.782;2022-09-09T01:04:34;26.50;99.90
56322;DHT22;42227;6.376;-10.782;2022-09-09T01:07:17;26.30;99.90
56322;DHT22;42227;6.376;-10.782;2022-09-09T01:09:56;26.10;99.90
56322;DHT22;42227;6.376;-10.782;2022-09-09T01:12:50;26.00;99.90
56322;DHT22;42227;6.376;-10.782;2022-09-09T01:15:24;25.90;99.90
56322;DHT22;42227;6.376;-10.782;2022-09-09T01:18:07;25.90;99.90
56322;DHT22;42227;6.376;-10.782;2022-09-09T01:23:45;26.10;99.90
56322;DHT22;42227;6.376;-10.782;2022-09-09T01:26:30;26.40;99.90
56322;DHT22;42227;6.376;-10.782;2022-09-09T01:29:14;26.50;99.90
56322;DHT22;42227;6.376;-10.782;2022-09-09T01:31:55;26.60;99.90
56322;DHT22;42227;6.376;-10.782;2022-09-09T01:34:30;26.50;99.90
56322;DHT22;42227;6.376;-10.782;2022-09-09T01:37:06;26.40;99.90
56322;DHT22;42227;6.376;-10.782;2022-09-09T01:39:52;26.30;99.90
56322;DHT22;42227;6.376;-10.782;2022-09-09T01:42:41;26.10;99.90
56322;DHT22;42227;6.376;-10.782;2022-09-09T01:45:09;25.90;99.90
56322;DHT22;42227;6.376;-10.782;2022-09-09T01:47:38;25.90;99.90
56322;DHT22;42227;6.376;-10.782;2022-09-09T01:50:16;25.90;99.90
56322;DHT22;42227;6.376;-10.782;2022-09-09T01:52:50;25.90;99.90
56322;DHT22;42227;6.376;-10.782;2022-09-09T01:55:36;25.80;99.90
56322;DHT22;42227;6.376;-10.782;2022-09-09T02:01:06;26.30;99.90
56322;DHT22;42227;6.376;-10.782;2022-09-09T02:03:35;26.20;99.90
56322;DHT22;42227;6.376;-10.782;2022-09-09T02:06:27;26.00;99.90
56322;DHT22;42227;6.376;-10.782;2022-09-09T02:09:10;25.90;99.90
56322;DHT22;42227;6.376;-10.782;2022-09-09T02:11:41;25.80;99.90
56322;DHT22;42227;6.376;-10.782;2022-09-09T02:14:26;25.80;99.90
56322;DHT22;42227;6.376;-10.782;2022-09-09T02:17:08;25.70;99.90
56322;DHT22;42227;6.376;-10.782;2022-09-09T02:20:04;25.80;99.90
56322;DHT22;42227;6.376;-10.782;2022-09-09T02:23:08;26.00;99.90
56322;DHT22;42227;6.376;-10.782;2022-09-09T02:25:40;26.40;99.90
56322;DHT22;42227;6.376;-10.782;2022-09-09T02:28:25;26.60;99.90
56322;DHT22;42227;6.376;-10.782;2022-09-09T02:30:55;26.50;99.90
56322;DHT22;42227;6.376;-10.782;2022-09-09T02:33:35;26.50;99.90
56322;DHT22;42227;6.376;-10.782;2022-09-09T02:36:07;26.50;99.90
56322;DHT22;42227;6.376;-10.782;2022-09-09T02:38:41;26.20;99.90
56322;DHT22;42227;6.376;-10.782;2022-09-09T02:41:13;26.00;99.90
56322;DHT22;42227;6.376;-10.782;2022-09-09T02:43:42;26.00;99.90
56322;DHT22;42227;6.376;-10.782;2022-09-09T02:49:48;25.90;99.90
56322;DHT22;42227;6.376;-10.782;2022-09-09T02:52:08;25.80;99.90
56322;DHT22;42227;6.376;-10.782;2022-09-09T02:54:42;25.80;99.90
56322;DHT22;42227;6.376;-10.782;2022-09-09T02:57:26;26.00;99.90
56322;DHT22;42227;6.376;-10.782;2022-09-09T02:59:57;26.30;99.90
56322;DHT22;42227;6.376;-10.782;2022-09-09T03:02:26;26.10;99.90
56322;DHT22;42227;6.376;-10.782;2022-09-09T03:05:00;26.00;99.90
56322;DHT22;42227;6.376;-10.782;2022-09-09T03:07:29;25.90;99.90
56322;DHT22;42227;6.376;-10.782;2022-09-09T03:09:57;25.80;99.90
56322;DHT22;42227;6.376;-10.782;2022-09-09T03:12:27;25.80;99.90
56322;DHT22;42227;6.376;-10.782;2022-09-09T03:14:55;25.70;99.90
56322;DHT22;42227;6.376;-10.782;2022-09-09T03:17:24;25.70;99.90
56322;DHT22;42227;6.376;-10.782;2022-09-09T03:19:54;25.90;99.90
56322;DHT22;42227;6.376;-10.782;2022-09-09T03:22:23;26.30;99.90
56322;DHT22;42227;6.376;-10.782;2022-09-09T03:24:51;26.40;99.90
56322;DHT22;42227;6.376;-10.782;2022-09-09T03:27:19;26.50;99.90
56322;DHT22;42227;6.376;-10.782;2022-09-09T03:29:48;26.60;99.90
56322;DHT22;42227;6.376;-10.782;2022-09-09T03:32:20;26.60;99.90
56322;DHT22;42227;6.376;-10.782;2022-09-09T03:34:48;26.40;99.90
56322;DHT22;42227;6.376;-10.782;2022-09-09T03:37:17;26.10;99.90
56322;DHT22;42227;6.376;-10.782;2022-09-09T03:39:48;26.00;99.90
56322;DHT22;42227;6.376;-10.782;2022-09-09T03:42:18;25.90;99.90
56322;DHT22;42227;6.376;-10.782;2022-09-09T03:44:50;25.90;99.90
56322;DHT22;42227;6.376;-10.782;2022-09-09T03:47:22;25.80;99.90
56322;DHT22;42227;6.376;-10.782;2022-09-09T03:49:55;25.80;99.90
56322;DHT22;42227;6.376;-10.782;2022-09-09T03:52:23;25.80;99.90
56322;DHT22;42227;6.376;-10.782;2022-09-09T03:54:53;26.00;99.90
56322;DHT22;42227;6.376;-10.782;2022-09-09T03:57:22;26.30;99.90
56322;DHT22;42227;6.376;-10.782;2022-09-09T03:59:50;26.30;99.90
56322;DHT22;42227;6.376;-10.782;2022-09-09T04:02:18;26.10;99.90
56322;DHT22;42227;6.376;-10.782;2022-09-09T04:04:46;25.90;99.90
56322;DHT22;42227;6.376;-10.782;2022-09-09T04:07:15;25.90;99.90
56322;DHT22;42227;6.376;-10.782;2022-09-09T04:09:44;25.80;99.90
56322;DHT22;42227;6.376;-10.782;2022-09-09T04:12:14;25.80;99.90
56322;DHT22;42227;6.376;-10.782;2022-09-09T04:14:42;25.70;99.90
56322;DHT22;42227;6.376;-10.782;2022-09-09T04:17:11;25.70;99.90
56322;DHT22;42227;6.376;-10.782;2022-09-09T04:19:39;26.00;99.90
56322;DHT22;42227;6.376;-10.782;2022-09-09T04:22:07;26.30;99.90
56322;DHT22;42227;6.376;-10.782;2022-09-09T04:24:35;26.40;99.90
56322;DHT22;42227;6.376;-10.782;2022-09-09T04:27:04;26.60;99.90
56322;DHT22;42227;6.376;-10.782;2022-09-09T04:29:35;26.50;99.90
56322;DHT22;42227;6.376;-10.782;2022-09-09T04:32:03;26.50;99.90
56322;DHT22;42227;6.376;-10.782;2022-09-09T04:34:32;26.30;99.90
56322;DHT22;42227;6.376;-10.782;2022-09-09T04:37:00;26.10;99.90
56322;DHT22;42227;6.376;-10.782;2022-09-09T04:39:28;25.90;99.90
56322;DHT22;42227;6.376;-10.782;2022-09-09T04:41:59;25.80;99.90
56322;DHT22;42227;6.376;-10.782;2022-09-09T04:44:27;25.80;99.90
56322;DHT22;42227;6.376;-10.782;2022-09-09T04:46:55;25.80;99.90
56322;DHT22;42227;6.376;-10.782;2022-09-09T04:49:24;25.70;99.90
56322;DHT22;42227;6.376;-10.782;2022-09-09T04:51:52;25.70;99.90
56322;DHT22;42227;6.376;-10.782;2022-09-09T04:56:12;26.10;99.90
56322;DHT22;42227;6.376;-10.782;2022-09-09T04:58:46;25.90;99.90
56322;DHT22;42227;6.376;-10.782;2022-09-09T05:01:18;25.80;99.90
56322;DHT22;42227;6.376;-10.782;2022-09-09T05:03:48;25.70;99.90
56322;DHT22;42227;6.376;-10.782;2022-09-09T05:06:21;25.70;99.90
56322;DHT22;42227;6.376;-10.782;2022-09-09T05:08:58;26.00;99.90
56322;DHT22;42227;6.376;-10.782;2022-09-09T05:11:31;26.30;99.90
56322;DHT22;42227;6.376;-10.782;2022-09-09T05:14:06;26.40;99.90
56322;DHT22;42227;6.376;-10.782;2022-09-09T05:16:35;26.50;99.90
56322;DHT22;42227;6.376;-10.782;2022-09-09T05:19:04;26.50;99.90
56322;DHT22;42227;6.376;-10.782;2022-09-09T05:21:42;26.50;99.90
56322;DHT22;42227;6.376;-10.782;2022-09-09T05:24:10;26.30;99.90
56322;DHT22;42227;6.376;-10.782;2022-09-09T05:26:39;26.00;99.90
56322;DHT22;42227;6.376;-10.782;2022-09-09T05:29:07;25.90;99.90
56322;DHT22;42227;6.376;-10.782;2022-09-09T05:31:36;25.80;99.90
56322;DHT22;42227;6.376;-10.782;2022-09-09T05:34:09;25.80;99.90
56322;DHT22;42227;6.376;-10.782;2022-09-09T05:36:37;25.70;99.90
56322;DHT22;42227;6.376;-10.782;2022-09-09T05:39:05;25.70;99.90
56322;DHT22;42227;6.376;-10.782;2022-09-09T05:41:34;25.70;99.90
56322;DHT22;42227;6.376;-10.782;2022-09-09T05:44:03;26.00;99.90
56322;DHT22;42227;6.376;-10.782;2022-09-09T05:46:35;26.20;99.90
56322;DHT22;42227;6.376;-10.782;2022-09-09T05:49:04;26.30;99.90
56322;DHT22;42227;6.376;-10.782;2022-09-09T05:51:33;26.10;99.90
56322;DHT22;42227;6.376;-10.782;2022-09-09T05:54:07;25.90;99.90
56322;DHT22;42227;6.376;-10.782;2022-09-09T05:56:40;25.80;99.90
56322;DHT22;42227;6.376;-10.782;2022-09-09T05:59:08;25.70;99.90
56322;DHT22;42227;6.376;-10.782;2022-09-09T06:01:38;25.70;99.90
56322;DHT22;42227;6.376;-10.782;2022-09-09T06:04:09;25.70;99.90
56322;DHT22;42227;6.376;-10.782;2022-09-09T06:06:39;25.80;99.90
56322;DHT22;42227;6.376;-10.782;2022-09-09T06:09:15;26.20;99.90
56322;DHT22;42227;6.376;-10.782;2022-09-09T06:11:44;26.50;99.90
56322;DHT22;42227;6.376;-10.782;2022-09-09T06:14:13;26.50;99.90
56322;DHT22;42227;6.376;-10.782;2022-09-09T06:16:45;26.50;99.90
56322;DHT22;42227;6.376;-10.782;2022-09-09T06:19:18;26.40;99.90
56322;DHT22;42227;6.376;-10.782;2022-09-09T06:21:47;26.10;99.90
56322;DHT22;42227;6.376;-10.782;2022-09-09T06:24:16;25.90;99.90
56322;DHT22;42227;6.376;-10.782;2022-09-09T06:26:44;25.80;99.90
56322;DHT22;42227;6.376;-10.782;2022-09-09T06:29:18;25.70;99.90
56322;DHT22;42227;6.376;-10.782;2022-09-09T06:31:46;25.70;99.90
56322;DHT22;42227;6.376;-10.782;2022-09-09T06:34:20;25.60;99.90
56322;DHT22;42227;6.376;-10.782;2022-09-09T06:36:52;25.60;99.90
56322;DHT22;42227;6.376;-10.782;2022-09-09T06:39:20;25.60;99.90
56322;DHT22;42227;6.376;-10.782;2022-09-09T06:41:49;25.70;99.90
56322;DHT22;42227;6.376;-10.782;2022-09-09T06:44:35;26.10;99.90
56322;DHT22;42227;6.376;-10.782;2022-09-09T06:47:08;26.20;99.90
56322;DHT22;42227;6.376;-10.782;2022-09-09T06:49:36;26.00;99.90
56322;DHT22;42227;6.376;-10.782;2022-09-09T06:52:08;25.90;99.90
56322;DHT22;42227;6.376;-10.782;2022-09-09T06:54:37;25.90;99.90
56322;DHT22;42227;6.376;-10.782;2022-09-09T06:57:06;25.90;99.90
56322;DHT22;42227;6.376;-10.782;2022-09-09T06:59:55;26.00;99.90
56322;DHT22;42227;6.376;-10.782;2022-09-09T07:02:24;26.00;99.90
56322;DHT22;42227;6.376;-10.782;2022-09-09T07:04:53;26.10;99.90
56322;DHT22;42227;6.376;-10.782;2022-09-09T07:07:22;26.30;99.90
56322;DHT22;42227;6.376;-10.782;2022-09-09T07:09:52;26.40;99.90
56322;DHT22;42227;6.376;-10.782;2022-09-09T07:12:20;26.50;99.90
56322;DHT22;42227;6.376;-10.782;2022-09-09T07:14:54;26.70;99.90
56322;DHT22;42227;6.376;-10.782;2022-09-09T07:17:23;26.60;99.90
56322;DHT22;42227;6.376;-10.782;2022-09-09T07:19:51;26.40;99.90
56322;DHT22;42227;6.376;-10.782;2022-09-09T07:22:20;26.10;99.90
56322;DHT22;42227;6.376;-10.782;2022-09-09T07:24:49;26.00;99.90
56322;DHT22;42227;6.376;-10.782;2022-09-09T07:27:17;25.90;99.90
56322;DHT22;42227;6.376;-10.782;2022-09-09T07:29:47;25.90;99.90
56322;DHT22;42227;6.376;-10.782;2022-09-09T07:32:15;25.90;99.90
56322;DHT22;42227;6.376;-10.782;2022-09-09T07:34:44;25.90;99.90
56322;DHT22;42227;6.376;-10.782;2022-09-09T07:37:12;26.00;99.90
56322;DHT22;42227;6.376;-10.782;2022-09-09T07:39:44;26.40;99.90
56322;DHT22;42227;6.376;-10.782;2022-09-09T07:42:13;26.60;99.90
56322;DHT22;42227;6.376;-10.782;2022-09-09T07:44:41;26.80;99.90
56322;DHT22;42227;6.376;-10.782;2022-09-09T07:47:13;27.00;99.90
56322;DHT22;42227;6.376;-10.782;2022-09-09T07:49:45;27.50;99.90
56322;DHT22;42227;6.376;-10.782;2022-09-09T07:52:18;27.90;99.90
56322;DHT22;42227;6.376;-10.782;2022-09-09T07:54:51;27.80;99.90
56322;DHT22;42227;6.376;-10.782;2022-09-09T07:57:20;27.90;99.90
56322;DHT22;42227;6.376;-10.782;2022-09-09T07:59:50;28.30;99.90
56322;DHT22;42227;6.376;-10.782;2022-09-09T08:02:19;29.40;99.90
56322;DHT22;42227;6.376;-10.782;2022-09-09T08:04:48;30.10;99.90
56322;DHT22;42227;6.376;-10.782;2022-09-09T08:07:18;29.60;99.90
56322;DHT22;42227;6.376;-10.782;2022-09-09T08:09:50;29.40;99.90
56322;DHT22;42227;6.376;-10.782;2022-09-09T08:12:23;29.20;99.90
56322;DHT22;42227;6.376;-10.782;2022-09-09T08:14:51;29.60;99.90
56322;DHT22;42227;6.376;-10.782;2022-09-09T08:17:25;30.20;99.90
56322;DHT22;42227;6.376;-10.782;2022-09-09T08:19:53;31.60;99.90
56322;DHT22;42227;6.376;-10.782;2022-09-09T08:22:26;30.90;99.90
56322;DHT22;42227;6.376;-10.782;2022-09-09T08:24:54;29.80;99.90
56322;DHT22;42227;6.376;-10.782;2022-09-09T08:27:23;29.20;99.90
56322;DHT22;42227;6.376;-10.782;2022-09-09T08:29:53;29.10;99.90
56322;DHT22;42227;6.376;-10.782;2022-09-09T08:32:21;28.80;99.90
56322;DHT22;42227;6.376;-10.782;2022-09-09T08:34:50;28.70;99.90
56322;DHT22;42227;6.376;-10.782;2022-09-09T08:37:23;28.50;99.90
56322;DHT22;42227;6.376;-10.782;2022-09-09T08:39:52;28.50;99.90
56322;DHT22;42227;6.376;-10.782;2022-09-09T08:45:19;28.60;99.90
56322;DHT22;42227;6.376;-10.782;2022-09-09T08:48:06;28.60;99.90
56322;DHT22;42227;6.376;-10.782;2022-09-09T08:50:37;28.80;99.90
56322;DHT22;42227;6.376;-10.782;2022-09-09T08:53:24;28.70;99.90
56322;DHT22;42227;6.376;-10.782;2022-09-09T08:55:57;28.50;99.90
56322;DHT22;42227;6.376;-10.782;2022-09-09T08:58:34;28.20;99.90
56322;DHT22;42227;6.376;-10.782;2022-09-09T09:06:55;27.40;99.90
56322;DHT22;42227;6.376;-10.782;2022-09-09T09:12:22;27.10;99.90
56322;DHT22;42227;6.376;-10.782;2022-09-09T09:14:54;27.20;99.90
56322;DHT22;42227;6.376;-10.782;2022-09-09T09:17:25;27.40;99.90
56322;DHT22;42227;6.376;-10.782;2022-09-09T09:19:54;27.50;99.90
56322;DHT22;42227;6.376;-10.782;2022-09-09T09:22:27;27.30;99.90
56322;DHT22;42227;6.376;-10.782;2022-09-09T09:25:04;27.20;99.90
56322;DHT22;42227;6.376;-10.782;2022-09-09T09:30:26;27.40;99.90
56322;DHT22;42227;6.376;-10.782;2022-09-09T09:35:51;27.80;99.90
56322;DHT22;42227;6.376;-10.782;2022-09-09T09:38:23;28.20;99.90
56322;DHT22;42227;6.376;-10.782;2022-09-09T09:41:13;28.50;99.90
56322;DHT22;42227;6.376;-10.782;2022-09-09T09:43:41;28.20;99.90
56322;DHT22;42227;6.376;-10.782;2022-09-09T09:46:23;27.90;99.90
56322;DHT22;42227;6.376;-10.782;2022-09-09T09:49:03;27.80;99.90
56322;DHT22;42227;6.376;-10.782;2022-09-09T09:51:33;27.70;99.90
56322;DHT22;42227;6.376;-10.782;2022-09-09T09:56:43;27.30;99.90
56322;DHT22;42227;6.376;-10.782;2022-09-09T09:59:43;27.20;99.90
56322;DHT22;42227;6.376;-10.782;2022-09-09T10:02:22;27.20;99.90
56322;DHT22;42227;6.376;-10.782;2022-09-09T10:08:18;27.40;99.90
56322;DHT22;42227;6.376;-10.782;2022-09-09T10:11:12;27.40;99.90
56322;DHT22;42227;6.376;-10.782;2022-09-09T10:19:00;28.40;99.90
56322;DHT22;42227;6.376;-10.782;2022-09-09T10:24:39;28.00;99.90
56322;DHT22;42227;6.376;-10.782;2022-09-09T10:30:16;27.20;99.90
56322;DHT22;42227;6.376;-10.782;2022-09-09T10:32:57;27.10;99.90
56322;DHT22;42227;6.376;-10.782;2022-09-09T10:35:33;27.10;99.90
56322;DHT22;42227;6.376;-10.782;2022-09-09T10:38:18;27.00;99.90
56322;DHT22;42227;6.376;-10.782;2022-09-09T10:52:07;27.70;99.90
56322;DHT22;42227;6.376;-10.782;2022-09-09T10:57:25;27.70;99.90
56322;DHT22;42227;6.376;-10.782;2022-09-09T10:59:58;27.90;99.90
56322;DHT22;42227;6.376;-10.782;2022-09-09T11:02:30;28.40;99.90
56322;DHT22;42227;6.376;-10.782;2022-09-09T11:05:21;29.20;99.90
56322;DHT22;42227;6.376;-10.782;2022-09-09T11:08:06;30.10;99.90
56322;DHT22;42227;6.376;-10.782;2022-09-09T11:18:48;30.70;99.90
56322;DHT22;42227;6.376;-10.782;2022-09-09T11:21:33;30.60;99.90
56322;DHT22;42227;6.376;-10.782;2022-09-09T11:24:08;30.70;99.90
56322;DHT22;42227;6.376;-10.782;2022-09-09T11:26:47;30.80;99.90
56322;DHT22;42227;6.376;-10.782;2022-09-09T11:32:30;30.50;99.90
56322;DHT22;42227;6.376;-10.782;2022-09-09T11:37:56;30.30;99.90
56322;DHT22;42227;6.376;-10.782;2022-09-09T11:40:27;30.50;99.90
56322;DHT22;42227;6.376;-10.782;2022-09-09T11:43:03;30.60;99.90
56322;DHT22;42227;6.376;-10.782;2022-09-09T11:45:34;30.20;99.90
56322;DHT22;42227;6.376;-10.782;2022-09-09T11:48:03;29.90;99.90
56322;DHT22;42227;6.376;-10.782;2022-09-09T11:50:35;29.50;99.90
56322;DHT22;42227;6.376;-10.782;2022-09-09T11:53:24;29.50;99.90
56322;DHT22;42227;6.376;-10.782;2022-09-09T11:56:06;29.60;99.90
56322;DHT22;42227;6.376;-10.782;2022-09-09T11:58:41;29.60;99.90
56322;DHT22;42227;6.376;-10.782;2022-09-09T12:01:36;29.40;99.90
56322;DHT22;42227;6.376;-10.782;2022-09-09T12:06:52;30.10;99.90
56322;DHT22;42227;6.376;-10.782;2022-09-09T12:09:54;30.70;99.90
56322;DHT22;42227;6.376;-10.782;2022-09-09T12:12:31;30.70;99.90
56322;DHT22;42227;6.376;-10.782;2022-09-09T12:17:36;31.60;99.90
56322;DHT22;42227;6.376;-10.782;2022-09-09T12:22:51;30.90;99.90
56322;DHT22;42227;6.376;-10.782;2022-09-09T12:28:20;30.20;99.90
56322;DHT22;42227;6.376;-10.782;2022-09-09T12:31:06;30.60;99.90
56322;DHT22;42227;6.376;-10.782;2022-09-09T12:33:39;30.90;99.90
56322;DHT22;42227;6.376;-10.782;2022-09-09T12:36:18;30.90;99.90
56322;DHT22;42227;6.376;-10.782;2022-09-09T12:38:47;30.60;99.90
56322;DHT22;42227;6.376;-10.782;2022-09-09T12:41:23;30.20;99.90
56322;DHT22;42227;6.376;-10.782;2022-09-09T12:44:03;29.60;99.90
56322;DHT22;42227;6.376;-10.782;2022-09-09T12:46:36;29.10;99.90
56322;DHT22;42227;6.376;-10.782;2022-09-09T12:49:20;28.70;99.90
56322;DHT22;42227;6.376;-10.782;2022-09-09T12:51:53;28.40;99.90
56322;DHT22;42227;6.376;-10.782;2022-09-09T12:54:21;28.40;99.90
56322;DHT22;42227;6.376;-10.782;2022-09-09T12:56:50;28.20;99.90
56322;DHT22;42227;6.376;-10.782;2022-09-09T12:59:27;28.10;99.90
56322;DHT22;42227;6.376;-10.782;2022-09-09T13:02:02;28.10;99.90
56322;DHT22;42227;6.376;-10.782;2022-09-09T13:04:31;28.00;99.90
56322;DHT22;42227;6.376;-10.782;2022-09-09T13:07:07;27.90;99.90
56322;DHT22;42227;6.376;-10.782;2022-09-09T13:09:42;28.00;99.90
56322;DHT22;42227;6.376;-10.782;2022-09-09T13:12:23;28.10;99.90
56322;DHT22;42227;6.376;-10.782;2022-09-09T13:14:54;28.30;99.90
56322;DHT22;42227;6.376;-10.782;2022-09-09T13:17:25;28.30;99.90
56322;DHT22;42227;6.376;-10.782;2022-09-09T13:19:54;28.20;99.90
56322;DHT22;42227;6.376;-10.782;2022-09-09T13:22:35;28.20;99.90
56322;DHT22;42227;6.376;-10.782;2022-09-09T13:27:40;28.40;99.90
56322;DHT22;42227;6.376;-10.782;2022-09-09T13:33:18;28.10;99.90
56322;DHT22;42227;6.376;-10.782;2022-09-09T13:35:58;28.00;99.90
56322;DHT22;42227;6.376;-10.782;2022-09-09T13:38:29;28.00;99.90
56322;DHT22;42227;6.376;-10.782;2022-09-09T13:41:00;27.80;99.90
56322;DHT22;42227;6.376;-10.782;2022-09-09T13:43:54;27.70;99.90
56322;DHT22;42227;6.376;-10.782;2022-09-09T13:46:35;27.80;99.90
56322;DHT22;42227;6.376;-10.782;2022-09-09T13:51:42;27.70;99.90
56322;DHT22;42227;6.376;-10.782;2022-09-09T13:54:13;27.50;99.90
56322;DHT22;42227;6.376;-10.782;2022-09-09T13:56:42;27.50;99.90
56322;DHT22;42227;6.376;-10.782;2022-09-09T13:59:19;27.60;99.90
56322;DHT22;42227;6.376;-10.782;2022-09-09T14:01:48;27.50;99.90
56322;DHT22;42227;6.376;-10.782;2022-09-09T14:04:16;27.50;99.90
56322;DHT22;42227;6.376;-10.782;2022-09-09T14:06:44;27.60;99.90
56322;DHT22;42227;6.376;-10.782;2022-09-09T14:09:17;27.60;99.90
56322;DHT22;42227;6.376;-10.782;2022-09-09T14:11:45;27.60;99.90
56322;DHT22;42227;6.376;-10.782;2022-09-09T14:14:13;27.60;99.90
56322;DHT22;42227;6.376;-10.782;2022-09-09T14:16:42;27.50;99.90
56322;DHT22;42227;6.376;-10.782;2022-09-09T14:19:10;27.60;99.90
56322;DHT22;42227;6.376;-10.782;2022-09-09T14:21:39;27.60;99.90
56322;DHT22;42227;6.376;-10.782;2022-09-09T14:24:07;27.60;99.90
56322;DHT22;42227;6.376;-10.782;2022-09-09T14:26:36;27.60;99.90
56322;DHT22;42227;6.376;-10.782;2022-09-09T14:29:06;27.50;99.90
56322;DHT22;42227;6.376;-10.782;2022-09-09T14:31:35;27.40;99.90
56322;DHT22;42227;6.376;-10.782;2022-09-09T14:34:05;27.40;99.90
56322;DHT22;42227;6.376;-10.782;2022-09-09T14:36:34;27.60;99.90
56322;DHT22;42227;6.376;-10.782;2022-09-09T14:39:03;27.80;99.90
56322;DHT22;42227;6.376;-10.782;2022-09-09T14:41:31;28.10;99.90
56322;DHT22;42227;6.376;-10.782;2022-09-09T14:44:00;28.10;99.90
56322;DHT22;42227;6.376;-10.782;2022-09-09T14:46:28;28.20;99.90
56322;DHT22;42227;6.376;-10.782;2022-09-09T14:48:57;28.60;99.90
56322;DHT22;42227;6.376;-10.782;2022-09-09T14:51:27;28.70;99.90
56322;DHT22;42227;6.376;-10.782;2022-09-09T14:53:57;28.40;99.90
56322;DHT22;42227;6.376;-10.782;2022-09-09T14:56:28;28.50;99.90
56322;DHT22;42227;6.376;-10.782;2022-09-09T14:58:58;28.70;99.90
56322;DHT22;42227;6.376;-10.782;2022-09-09T15:01:27;28.40;99.90
56322;DHT22;42227;6.376;-10.782;2022-09-09T15:04:02;28.30;99.90
56322;DHT22;42227;6.376;-10.782;2022-09-09T15:06:34;28.20;99.90
56322;DHT22;42227;6.376;-10.782;2022-09-09T15:09:02;28.60;99.90
56322;DHT22;42227;6.376;-10.782;2022-09-09T15:11:34;28.90;99.90
56322;DHT22;42227;6.376;-10.782;2022-09-09T15:14:04;28.90;99.90
56322;DHT22;42227;6.376;-10.782;2022-09-09T15:16:33;28.50;99.90
56322;DHT22;42227;6.376;-10.782;2022-09-09T15:19:02;28.20;99.90
56322;DHT22;42227;6.376;-10.782;2022-09-09T15:21:33;27.90;99.90
56322;DHT22;42227;6.376;-10.782;2022-09-09T15:24:03;27.60;99.90
56322;DHT22;42227;6.376;-10.782;2022-09-09T15:26:31;27.40;99.90
56322;DHT22;42227;6.376;-10.782;2022-09-09T15:28:59;27.30;99.90
56322;DHT22;42227;6.376;-10.782;2022-09-09T15:31:30;27.30;99.90
56322;DHT22;42227;6.376;-10.782;2022-09-09T15:34:01;27.20;99.90
56322;DHT22;42227;6.376;-10.782;2022-09-09T15:38:59;26.90;99.90
56322;DHT22;42227;6.376;-10.782;2022-09-09T15:41:28;27.10;99.90
56322;DHT22;42227;6.376;-10.782;2022-09-09T15:43:58;27.20;99.90
56322;DHT22;42227;6.376;-10.782;2022-09-09T15:46:36;26.90;99.90
56322;DHT22;42227;6.376;-10.782;2022-09-09T15:49:12;26.80;99.90
56322;DHT22;42227;6.376;-10.782;2022-09-09T15:51:47;26.90;99.90
56322;DHT22;42227;6.376;-10.782;2022-09-09T15:54:17;26.80;99.90
56322;DHT22;42227;6.376;-10.782;2022-09-09T15:56:47;26.80;99.90
56322;DHT22;42227;6.376;-10.782;2022-09-09T15:59:17;26.80;99.90
56322;DHT22;42227;6.376;-10.782;2022-09-09T16:01:45;26.90;99.90
56322;DHT22;42227;6.376;-10.782;2022-09-09T16:04:14;27.10;99.90
56322;DHT22;42227;6.376;-10.782;2022-09-09T16:06:42;27.30;99.90
56322;DHT22;42227;6.376;-10.782;2022-09-09T16:09:10;27.40;99.90
56322;DHT22;42227;6.376;-10.782;2022-09-09T16:11:38;27.30;99.90
56322;DHT22;42227;6.376;-10.782;2022-09-09T16:14:07;27.30;99.90
56322;DHT22;42227;6.376;-10.782;2022-09-09T16:16:35;27.50;99.90
56322;DHT22;42227;6.376;-10.782;2022-09-09T16:19:08;27.50;99.90
56322;DHT22;42227;6.376;-10.782;2022-09-09T16:21:42;27.30;99.90
56322;DHT22;42227;6.376;-10.782;2022-09-09T16:24:13;27.20;99.90
56322;DHT22;42227;6.376;-10.782;2022-09-09T16:26:44;27.20;99.90
56322;DHT22;42227;6.376;-10.782;2022-09-09T16:29:14;27.10;99.90
56322;DHT22;42227;6.376;-10.782;2022-09-09T16:31:43;27.00;99.90
56322;DHT22;42227;6.376;-10.782;2022-09-09T16:34:19;27.00;99.90
56322;DHT22;42227;6.376;-10.782;2022-09-09T16:36:48;27.10;99.90
56322;DHT22;42227;6.376;-10.782;2022-09-09T16:39:18;27.40;99.90
56322;DHT22;42227;6.376;-10.782;2022-09-09T16:41:47;27.60;99.90
56322;DHT22;42227;6.376;-10.782;2022-09-09T16:44:17;27.40;99.90
56322;DHT22;42227;6.376;-10.782;2022-09-09T16:46:47;27.10;99.90
56322;DHT22;42227;6.376;-10.782;2022-09-09T16:49:16;27.10;99.90
56322;DHT22;42227;6.376;-10.782;2022-09-09T16:51:46;27.10;99.90
56322;DHT22;42227;6.376;-10.782;2022-09-09T16:54:16;27.00;99.90
56322;DHT22;42227;6.376;-10.782;2022-09-09T16:56:47;27.00;99.90
56322;DHT22;42227;6.376;-10.782;2022-09-09T16:59:17;27.10;99.90
56322;DHT22;42227;6.376;-10.782;2022-09-09T17:01:48;27.50;99.90
56322;DHT22;42227;6.376;-10.782;2022-09-09T17:04:22;27.60;99.90
56322;DHT22;42227;6.376;-10.782;2022-09-09T17:06:52;27.60;99.90
56322;DHT22;42227;6.376;-10.782;2022-09-09T17:09:22;27.60;99.90
56322;DHT22;42227;6.376;-10.782;2022-09-09T17:11:50;27.50;99.90
56322;DHT22;42227;6.376;-10.782;2022-09-09T17:14:20;27.60;99.90
56322;DHT22;42227;6.376;-10.782;2022-09-09T17:16:49;27.20;99.90
56322;DHT22;42227;6.376;-10.782;2022-09-09T17:19:17;26.80;99.90
56322;DHT22;42227;6.376;-10.782;2022-09-09T17:21:45;26.20;99.90
56322;DHT22;42227;6.376;-10.782;2022-09-09T17:24:34;26.00;99.90
56322;DHT22;42227;6.376;-10.782;2022-09-09T17:27:02;26.10;99.90
56322;DHT22;42227;6.376;-10.782;2022-09-09T17:29:31;26.10;99.90
56322;DHT22;42227;6.376;-10.782;2022-09-09T17:31:59;26.10;99.90
56322;DHT22;42227;6.376;-10.782;2022-09-09T17:34:27;26.30;99.90
56322;DHT22;42227;6.376;-10.782;2022-09-09T17:36:55;26.30;99.90
56322;DHT22;42227;6.376;-10.782;2022-09-09T17:39:23;26.00;99.90
56322;DHT22;42227;6.376;-10.782;2022-09-09T17:41:52;25.70;99.90
56322;DHT22;42227;6.376;-10.782;2022-09-09T17:44:20;25.70;99.90
56322;DHT22;42227;6.376;-10.782;2022-09-09T17:46:48;25.60;99.90
56322;DHT22;42227;6.376;-10.782;2022-09-09T17:49:17;25.50;99.90
56322;DHT22;42227;6.376;-10.782;2022-09-09T17:51:46;25.40;99.90